Bookmark and Share
Track history (hours):
 

Veracruz Express

Last reported at 2013-Jun-21 04:22 UTC. Time now 2014-Apr-17 22:02 UTC.
Position N 30°20' E 032°23'.
Warning: this ship's position is months out of date.

Length 269 m; beam 32.2 m; draft 11.5 m.

Type: Ship. MMSI: 310417000.

NotesDate/timePositionNaut miles runAvg speedWind from/ knotsBaromVisibWave heightAir tempDewpointWater temp
2013-Jun-21 04:22N 30°20' E 032°23'1110.3
2013-Jun-21 03:16N 30°31' E 032°20'6 8.4
2013-Jun-21 02:33N 30°37' E 032°19'21 8.5
2013-Jun-21 00:07N 30°57' E 032°19'6 8.6
2013-Jun-20 23:23N 31°04' E 032°19'7 8.7
2013-Jun-20 22:33N 31°11' E 032°20'8 8.0
2013-Jun-20 21:34N 31°19' E 032°22'8 7.9
2013-Jun-20 20:34N 31°27' E 032°22'4 4.3
2013-Jun-20 19:31N 31°24' E 032°19'0 0.0
2013-Jun-20 18:31N 31°23' E 032°19'0 0.0
2013-Jun-20 17:31N 31°23' E 032°19'0 0.0
2013-Jun-20 16:33N 31°23' E 032°19'0 0.0
2013-Jun-20 15:33N 31°24' E 032°19'0 0.0
2013-Jun-20 14:33N 31°24' E 032°19'0 0.0
2013-Jun-20 13:33N 31°24' E 032°19'0 0.0
2013-Jun-20 12:33N 31°24' E 032°19'2 2.3
2013-Jun-20 11:32N 31°24' E 032°21'1 0.7
2013-Jun-20 10:33N 31°24' E 032°21'3611.7
2013-Jun-20 07:28N 31°48' E 031°49'19 9.5
2013-Jun-20 05:25N 32°00' E 031°31'2 2.6
2013-Jun-20 04:33N 32°02' E 031°33'1413.8
2013-Jun-20 03:32N 32°05' E 031°17'1 0.6
2013-Jun-20 02:33N 32°06' E 031°17'1 0.6
2013-Jun-20 01:31N 32°06' E 031°16'0 0.5
2013-Jun-20 00:33N 32°06' E 031°15'0 0.4
2013-Jun-19 23:33N 32°06' E 031°15'2 0.4
2013-Jun-19 19:33N 32°07' E 031°13'1 0.6
2013-Jun-19 18:33N 32°08' E 031°13'1 0.6
2013-Jun-19 17:33N 32°08' E 031°12'1 0.7
2013-Jun-19 16:33N 32°08' E 031°12'1 0.8
2013-Jun-19 15:33N 32°09' E 031°11'1 1.0
2013-Jun-19 14:33N 32°10' E 031°11'1 1.1
2013-Jun-19 13:33N 32°11' E 031°10'2 1.2
2013-Jun-19 11:29N 32°12' E 031°07'9710.5
2013-Jun-19 02:14N 32°27' E 029°13'0 0.7
2013-Jun-19 01:33N 32°27' E 029°13'1 0.7
2013-Jun-19 00:33N 32°28' E 029°13'1 0.7
2013-Jun-18 23:33N 32°29' E 029°13'2 0.7
2013-Jun-18 20:33N 32°31' E 029°13'45812.3
2013-Jun-17 07:15N 34°44' E 020°27'3416.1
2013-Jun-17 05:08N 34°53' E 019°47'9016.0
2013-Jun-16 23:30N 35°18' E 018°01'2416.3
2013-Jun-16 22:03N 35°24' E 017°33'2616.4
2013-Jun-16 20:29N 35°31' E 017°03'2116.3
2013-Jun-16 19:10N 35°37' E 016°38'1116.2
2013-Jun-16 18:31N 35°40' E 016°25'1516.2
2013-Jun-16 17:33N 35°44' E 016°07'1716.5
2013-Jun-16 16:33N 35°49' E 015°47'1716.8
2013-Jun-16 15:32N 35°53' E 015°27'1616.6
2013-Jun-16 14:33N 35°58' E 015°08'1716.6
2013-Jun-16 13:34N 36°06' E 014°49'1616.4
2013-Jun-16 12:33N 36°13' E 014°31'1616.4
2013-Jun-16 11:33N 36°22' E 014°14'1616.5
2013-Jun-16 10:34N 36°30' E 013°56'1616.4
2013-Jun-16 09:34N 36°39' E 013°39'1616.4
2013-Jun-16 08:34N 36°47' E 013°22'1616.2
2013-Jun-16 07:34N 36°55' E 013°04'1616.1
2013-Jun-16 06:34N 37°03' E 012°46'1716.5
2013-Jun-16 05:33N 37°14' E 012°30'213 5.3
2013-Jun-14 13:09N 38°45' E 008°26'398 8.1
2013-Jun-12 12:05N 38°09' W 000°00'916.9
2013-Jun-12 11:33N 38°01' W 000°07'1817.6
2013-Jun-12 10:33N 37°47' W 000°19'1817.9
2013-Jun-12 09:33N 37°32' W 000°32'  

Dump ship's entire track history

sailing weather and tide predictions

Veracruz Express — ZCDJ2 — position and weather